sensor_id;sensor_type;location;lat;lon;timestamp;P1;durP1;ratioP1;P2;durP2;ratioP2
9789;SDS011;4934;50.852;8.098;2023-12-20T00:01:08;2.63;;;2.10;;
9789;SDS011;4934;50.852;8.098;2023-12-20T00:03:33;3.53;;;1.95;;
9789;SDS011;4934;50.852;8.098;2023-12-20T00:05:59;3.13;;;2.15;;
9789;SDS011;4934;50.852;8.098;2023-12-20T00:08:25;3.15;;;2.25;;
9789;SDS011;4934;50.852;8.098;2023-12-20T00:10:50;3.38;;;2.60;;
9789;SDS011;4934;50.852;8.098;2023-12-20T00:13:16;3.53;;;2.17;;
9789;SDS011;4934;50.852;8.098;2023-12-20T00:15:41;4.25;;;2.60;;
9789;SDS011;4934;50.852;8.098;2023-12-20T00:18:07;4.82;;;2.67;;
9789;SDS011;4934;50.852;8.098;2023-12-20T00:20:32;3.95;;;2.50;;
9789;SDS011;4934;50.852;8.098;2023-12-20T00:22:58;5.40;;;2.90;;
9789;SDS011;4934;50.852;8.098;2023-12-20T00:25:24;5.10;;;2.90;;
9789;SDS011;4934;50.852;8.098;2023-12-20T00:27:50;4.78;;;2.90;;
9789;SDS011;4934;50.852;8.098;2023-12-20T00:30:15;4.60;;;2.72;;
9789;SDS011;4934;50.852;8.098;2023-12-20T00:32:41;4.40;;;2.70;;
9789;SDS011;4934;50.852;8.098;2023-12-20T00:35:15;4.35;;;2.53;;
9789;SDS011;4934;50.852;8.098;2023-12-20T00:37:41;3.53;;;2.78;;
9789;SDS011;4934;50.852;8.098;2023-12-20T00:40:07;4.97;;;2.92;;
9789;SDS011;4934;50.852;8.098;2023-12-20T00:42:33;4.80;;;3.00;;
9789;SDS011;4934;50.852;8.098;2023-12-20T00:45:00;3.95;;;2.72;;
9789;SDS011;4934;50.852;8.098;2023-12-20T00:47:27;4.93;;;2.95;;
9789;SDS011;4934;50.852;8.098;2023-12-20T00:49:52;4.18;;;2.67;;
9789;SDS011;4934;50.852;8.098;2023-12-20T00:52:18;5.25;;;2.88;;
9789;SDS011;4934;50.852;8.098;2023-12-20T00:54:44;4.20;;;2.45;;
9789;SDS011;4934;50.852;8.098;2023-12-20T00:57:10;3.80;;;2.33;;
9789;SDS011;4934;50.852;8.098;2023-12-20T00:59:36;5.38;;;2.53;;
9789;SDS011;4934;50.852;8.098;2023-12-20T01:02:01;4.82;;;2.17;;
9789;SDS011;4934;50.852;8.098;2023-12-20T01:04:27;4.50;;;2.83;;
9789;SDS011;4934;50.852;8.098;2023-12-20T01:06:53;3.65;;;2.38;;
9789;SDS011;4934;50.852;8.098;2023-12-20T01:09:18;3.17;;;2.17;;
9789;SDS011;4934;50.852;8.098;2023-12-20T01:11:44;4.20;;;2.80;;
9789;SDS011;4934;50.852;8.098;2023-12-20T01:14:11;5.10;;;2.78;;
9789;SDS011;4934;50.852;8.098;2023-12-20T01:16:37;7.15;;;2.70;;
9789;SDS011;4934;50.852;8.098;2023-12-20T01:19:03;4.07;;;2.63;;
9789;SDS011;4934;50.852;8.098;2023-12-20T01:21:28;3.60;;;2.47;;
9789;SDS011;4934;50.852;8.098;2023-12-20T01:23:54;3.22;;;2.20;;
9789;SDS011;4934;50.852;8.098;2023-12-20T01:26:20;3.22;;;2.20;;
9789;SDS011;4934;50.852;8.098;2023-12-20T01:28:45;4.13;;;2.50;;
9789;SDS011;4934;50.852;8.098;2023-12-20T01:31:11;3.03;;;2.00;;
9789;SDS011;4934;50.852;8.098;2023-12-20T01:33:36;3.13;;;2.13;;
9789;SDS011;4934;50.852;8.098;2023-12-20T01:36:02;2.95;;;2.08;;
9789;SDS011;4934;50.852;8.098;2023-12-20T01:38:29;3.25;;;2.13;;
9789;SDS011;4934;50.852;8.098;2023-12-20T01:40:54;2.70;;;1.67;;
9789;SDS011;4934;50.852;8.098;2023-12-20T01:43:20;3.33;;;2.00;;
9789;SDS011;4934;50.852;8.098;2023-12-20T01:45:46;2.35;;;1.80;;
9789;SDS011;4934;50.852;8.098;2023-12-20T01:48:12;2.33;;;1.65;;
9789;SDS011;4934;50.852;8.098;2023-12-20T01:50:39;2.03;;;1.40;;
9789;SDS011;4934;50.852;8.098;2023-12-20T01:53:07;1.90;;;1.38;;
9789;SDS011;4934;50.852;8.098;2023-12-20T01:55:34;2.13;;;1.60;;
9789;SDS011;4934;50.852;8.098;2023-12-20T01:58:01;1.30;;;1.05;;
9789;SDS011;4934;50.852;8.098;2023-12-20T02:00:27;2.58;;;0.90;;
9789;SDS011;4934;50.852;8.098;2023-12-20T02:02:54;1.00;;;0.80;;
9789;SDS011;4934;50.852;8.098;2023-12-20T02:05:20;1.63;;;1.00;;
9789;SDS011;4934;50.852;8.098;2023-12-20T02:07:49;1.08;;;0.98;;
9789;SDS011;4934;50.852;8.098;2023-12-20T02:10:15;1.55;;;1.17;;
9789;SDS011;4934;50.852;8.098;2023-12-20T02:12:41;2.92;;;1.92;;
9789;SDS011;4934;50.852;8.098;2023-12-20T02:15:06;2.72;;;1.80;;
9789;SDS011;4934;50.852;8.098;2023-12-20T02:17:32;5.68;;;2.58;;
9789;SDS011;4934;50.852;8.098;2023-12-20T02:19:58;6.32;;;2.50;;
9789;SDS011;4934;50.852;8.098;2023-12-20T02:22:24;4.75;;;2.40;;
9789;SDS011;4934;50.852;8.098;2023-12-20T02:24:49;8.18;;;2.55;;
9789;SDS011;4934;50.852;8.098;2023-12-20T02:27:15;9.57;;;3.00;;
9789;SDS011;4934;50.852;8.098;2023-12-20T02:29:44;7.53;;;3.10;;
9789;SDS011;4934;50.852;8.098;2023-12-20T02:34:39;6.50;;;2.97;;
9789;SDS011;4934;50.852;8.098;2023-12-20T02:37:04;7.90;;;2.95;;
9789;SDS011;4934;50.852;8.098;2023-12-20T02:39:30;8.10;;;2.97;;
9789;SDS011;4934;50.852;8.098;2023-12-20T02:41:56;4.60;;;2.78;;
9789;SDS011;4934;50.852;8.098;2023-12-20T02:44:21;9.30;;;3.00;;
9789;SDS011;4934;50.852;8.098;2023-12-20T02:46:47;6.72;;;2.97;;
9789;SDS011;4934;50.852;8.098;2023-12-20T02:49:12;6.75;;;3.20;;
9789;SDS011;4934;50.852;8.098;2023-12-20T02:51:38;5.85;;;3.28;;
9789;SDS011;4934;50.852;8.098;2023-12-20T02:54:04;12.48;;;3.42;;
9789;SDS011;4934;50.852;8.098;2023-12-20T02:56:36;7.15;;;3.63;;
9789;SDS011;4934;50.852;8.098;2023-12-20T02:59:02;9.27;;;4.32;;
9789;SDS011;4934;50.852;8.098;2023-12-20T03:01:30;9.52;;;3.42;;
9789;SDS011;4934;50.852;8.098;2023-12-20T03:03:56;7.65;;;3.53;;
9789;SDS011;4934;50.852;8.098;2023-12-20T03:06:22;10.10;;;3.47;;
9789;SDS011;4934;50.852;8.098;2023-12-20T03:08:48;9.55;;;3.10;;
9789;SDS011;4934;50.852;8.098;2023-12-20T03:11:13;14.10;;;3.28;;
9789;SDS011;4934;50.852;8.098;2023-12-20T03:13:39;8.00;;;2.75;;
9789;SDS011;4934;50.852;8.098;2023-12-20T03:16:08;10.77;;;2.97;;
9789;SDS011;4934;50.852;8.098;2023-12-20T03:18:35;10.13;;;3.20;;
9789;SDS011;4934;50.852;8.098;2023-12-20T03:21:01;8.15;;;3.00;;
9789;SDS011;4934;50.852;8.098;2023-12-20T03:23:26;10.00;;;3.38;;
9789;SDS011;4934;50.852;8.098;2023-12-20T03:25:52;7.40;;;3.70;;
9789;SDS011;4934;50.852;8.098;2023-12-20T03:28:18;11.10;;;3.22;;
9789;SDS011;4934;50.852;8.098;2023-12-20T03:30:44;14.75;;;4.05;;
9789;SDS011;4934;50.852;8.098;2023-12-20T03:33:13;12.95;;;3.40;;
9789;SDS011;4934;50.852;8.098;2023-12-20T03:35:38;11.02;;;3.63;;
9789;SDS011;4934;50.852;8.098;2023-12-20T03:38:04;7.72;;;2.90;;
9789;SDS011;4934;50.852;8.098;2023-12-20T03:40:29;12.77;;;4.00;;
9789;SDS011;4934;50.852;8.098;2023-12-20T03:43:01;9.85;;;3.55;;
9789;SDS011;4934;50.852;8.098;2023-12-20T03:45:26;9.77;;;4.03;;
9789;SDS011;4934;50.852;8.098;2023-12-20T03:47:52;11.77;;;4.47;;
9789;SDS011;4934;50.852;8.098;2023-12-20T03:50:24;9.93;;;4.22;;
9789;SDS011;4934;50.852;8.098;2023-12-20T03:52:51;16.05;;;4.75;;
9789;SDS011;4934;50.852;8.098;2023-12-20T03:55:16;8.98;;;3.95;;
9789;SDS011;4934;50.852;8.098;2023-12-20T03:57:42;15.00;;;4.47;;
9789;SDS011;4934;50.852;8.098;2023-12-20T04:00:08;12.68;;;4.68;;
9789;SDS011;4934;50.852;8.098;2023-12-20T04:02:36;19.67;;;6.13;;
9789;SDS011;4934;50.852;8.098;2023-12-20T04:05:02;9.48;;;4.53;;
9789;SDS011;4934;50.852;8.098;2023-12-20T04:07:27;18.15;;;4.90;;
9789;SDS011;4934;50.852;8.098;2023-12-20T04:09:53;12.93;;;5.43;;
9789;SDS011;4934;50.852;8.098;2023-12-20T04:12:18;19.52;;;5.45;;
9789;SDS011;4934;50.852;8.098;2023-12-20T04:14:44;12.02;;;4.85;;
9789;SDS011;4934;50.852;8.098;2023-12-20T04:17:10;14.70;;;6.07;;
9789;SDS011;4934;50.852;8.098;2023-12-20T04:19:35;12.25;;;5.03;;
9789;SDS011;4934;50.852;8.098;2023-12-20T04:22:05;17.42;;;4.50;;
9789;SDS011;4934;50.852;8.098;2023-12-20T04:24:30;17.35;;;4.68;;
9789;SDS011;4934;50.852;8.098;2023-12-20T04:26:57;16.75;;;4.50;;
9789;SDS011;4934;50.852;8.098;2023-12-20T04:29:23;12.20;;;4.65;;
9789;SDS011;4934;50.852;8.098;2023-12-20T04:31:48;15.63;;;4.78;;
9789;SDS011;4934;50.852;8.098;2023-12-20T04:34:16;13.05;;;4.43;;
9789;SDS011;4934;50.852;8.098;2023-12-20T04:36:42;14.57;;;5.18;;
9789;SDS011;4934;50.852;8.098;2023-12-20T04:39:07;15.20;;;5.10;;
9789;SDS011;4934;50.852;8.098;2023-12-20T04:41:33;17.58;;;5.93;;
9789;SDS011;4934;50.852;8.098;2023-12-20T04:46:48;12.25;;;4.80;;
9789;SDS011;4934;50.852;8.098;2023-12-20T04:49:14;21.17;;;11.77;;
9789;SDS011;4934;50.852;8.098;2023-12-20T04:51:40;23.63;;;12.45;;
9789;SDS011;4934;50.852;8.098;2023-12-20T04:54:05;14.20;;;6.15;;
9789;SDS011;4934;50.852;8.098;2023-12-20T04:56:31;17.23;;;7.45;;
9789;SDS011;4934;50.852;8.098;2023-12-20T04:58:56;19.33;;;6.95;;
9789;SDS011;4934;50.852;8.098;2023-12-20T05:01:22;14.48;;;5.88;;
9789;SDS011;4934;50.852;8.098;2023-12-20T05:03:48;22.48;;;6.00;;
9789;SDS011;4934;50.852;8.098;2023-12-20T05:06:13;18.42;;;5.65;;
9789;SDS011;4934;50.852;8.098;2023-12-20T05:08:40;18.48;;;5.80;;
9789;SDS011;4934;50.852;8.098;2023-12-20T05:11:05;14.10;;;5.80;;
9789;SDS011;4934;50.852;8.098;2023-12-20T05:13:31;26.13;;;6.95;;
9789;SDS011;4934;50.852;8.098;2023-12-20T05:15:57;16.10;;;5.70;;
9789;SDS011;4934;50.852;8.098;2023-12-20T05:18:22;14.98;;;5.78;;
9789;SDS011;4934;50.852;8.098;2023-12-20T05:20:48;18.58;;;6.53;;
9789;SDS011;4934;50.852;8.098;2023-12-20T05:23:15;17.90;;;6.05;;
9789;SDS011;4934;50.852;8.098;2023-12-20T05:25:41;17.95;;;6.05;;
9789;SDS011;4934;50.852;8.098;2023-12-20T05:28:06;17.65;;;6.03;;
9789;SDS011;4934;50.852;8.098;2023-12-20T05:33:19;13.93;;;5.13;;
9789;SDS011;4934;50.852;8.098;2023-12-20T05:35:45;20.70;;;6.05;;
9789;SDS011;4934;50.852;8.098;2023-12-20T05:38:11;21.33;;;5.55;;
9789;SDS011;4934;50.852;8.098;2023-12-20T05:40:36;24.27;;;5.72;;
9789;SDS011;4934;50.852;8.098;2023-12-20T05:43:02;18.90;;;6.18;;
9789;SDS011;4934;50.852;8.098;2023-12-20T05:45:27;18.73;;;5.88;;
9789;SDS011;4934;50.852;8.098;2023-12-20T05:47:53;17.92;;;5.68;;
9789;SDS011;4934;50.852;8.098;2023-12-20T05:50:19;19.50;;;5.47;;
9789;SDS011;4934;50.852;8.098;2023-12-20T05:52:44;12.55;;;5.03;;
9789;SDS011;4934;50.852;8.098;2023-12-20T05:55:10;22.27;;;5.88;;
9789;SDS011;4934;50.852;8.098;2023-12-20T05:57:35;16.83;;;5.50;;
9789;SDS011;4934;50.852;8.098;2023-12-20T06:00:02;21.40;;;5.53;;
9789;SDS011;4934;50.852;8.098;2023-12-20T06:02:28;12.88;;;4.88;;
9789;SDS011;4934;50.852;8.098;2023-12-20T06:04:54;24.13;;;5.70;;
9789;SDS011;4934;50.852;8.098;2023-12-20T06:07:19;8.05;;;4.03;;
9789;SDS011;4934;50.852;8.098;2023-12-20T06:09:46;17.40;;;4.70;;
9789;SDS011;4934;50.852;8.098;2023-12-20T06:12:12;8.73;;;3.88;;
9789;SDS011;4934;50.852;8.098;2023-12-20T06:14:37;15.13;;;3.60;;
9789;SDS011;4934;50.852;8.098;2023-12-20T06:17:03;14.82;;;4.45;;
9789;SDS011;4934;50.852;8.098;2023-12-20T06:19:29;17.52;;;5.10;;
9789;SDS011;4934;50.852;8.098;2023-12-20T06:21:54;14.15;;;3.92;;
9789;SDS011;4934;50.852;8.098;2023-12-20T06:24:20;12.38;;;3.78;;
9789;SDS011;4934;50.852;8.098;2023-12-20T06:26:46;14.55;;;4.43;;
9789;SDS011;4934;50.852;8.098;2023-12-20T06:29:12;15.82;;;4.60;;
9789;SDS011;4934;50.852;8.098;2023-12-20T06:31:37;16.25;;;4.88;;
9789;SDS011;4934;50.852;8.098;2023-12-20T06:34:03;16.75;;;5.20;;
9789;SDS011;4934;50.852;8.098;2023-12-20T06:36:29;20.52;;;6.45;;
9789;SDS011;4934;50.852;8.098;2023-12-20T06:38:54;23.23;;;6.45;;
9789;SDS011;4934;50.852;8.098;2023-12-20T06:41:20;25.27;;;5.32;;
9789;SDS011;4934;50.852;8.098;2023-12-20T06:43:46;27.80;;;6.18;;
9789;SDS011;4934;50.852;8.098;2023-12-20T06:46:12;14.95;;;5.28;;
9789;SDS011;4934;50.852;8.098;2023-12-20T06:48:38;14.30;;;5.30;;
9789;SDS011;4934;50.852;8.098;2023-12-20T06:51:05;23.67;;;5.05;;
9789;SDS011;4934;50.852;8.098;2023-12-20T06:53:31;16.15;;;6.25;;
9789;SDS011;4934;50.852;8.098;2023-12-20T06:55:56;20.48;;;5.93;;
9789;SDS011;4934;50.852;8.098;2023-12-20T06:58:22;26.50;;;7.40;;
9789;SDS011;4934;50.852;8.098;2023-12-20T07:00:48;23.75;;;6.00;;
9789;SDS011;4934;50.852;8.098;2023-12-20T07:03:14;20.27;;;5.72;;
9789;SDS011;4934;50.852;8.098;2023-12-20T07:05:39;21.67;;;4.63;;
9789;SDS011;4934;50.852;8.098;2023-12-20T07:08:06;21.75;;;5.00;;
9789;SDS011;4934;50.852;8.098;2023-12-20T07:10:31;24.80;;;6.55;;
9789;SDS011;4934;50.852;8.098;2023-12-20T07:12:59;23.23;;;6.35;;
9789;SDS011;4934;50.852;8.098;2023-12-20T07:15:25;15.52;;;5.00;;
9789;SDS011;4934;50.852;8.098;2023-12-20T07:17:52;26.40;;;6.57;;
9789;SDS011;4934;50.852;8.098;2023-12-20T07:20:17;21.55;;;6.43;;
9789;SDS011;4934;50.852;8.098;2023-12-20T07:22:43;21.88;;;6.15;;
9789;SDS011;4934;50.852;8.098;2023-12-20T07:25:09;24.80;;;6.97;;
9789;SDS011;4934;50.852;8.098;2023-12-20T07:27:37;21.88;;;6.05;;
9789;SDS011;4934;50.852;8.098;2023-12-20T07:30:03;17.13;;;6.15;;
9789;SDS011;4934;50.852;8.098;2023-12-20T07:32:29;29.65;;;6.95;;
9789;SDS011;4934;50.852;8.098;2023-12-20T07:34:54;22.13;;;5.65;;
9789;SDS011;4934;50.852;8.098;2023-12-20T07:37:20;22.52;;;5.68;;
9789;SDS011;4934;50.852;8.098;2023-12-20T07:39:46;25.63;;;6.75;;
9789;SDS011;4934;50.852;8.098;2023-12-20T07:42:11;25.65;;;6.65;;
9789;SDS011;4934;50.852;8.098;2023-12-20T07:44:37;23.33;;;6.05;;
9789;SDS011;4934;50.852;8.098;2023-12-20T07:47:03;21.80;;;6.40;;
9789;SDS011;4934;50.852;8.098;2023-12-20T07:49:30;17.20;;;5.80;;
9789;SDS011;4934;50.852;8.098;2023-12-20T07:51:56;25.60;;;6.80;;
9789;SDS011;4934;50.852;8.098;2023-12-20T07:54:22;30.92;;;7.00;;
9789;SDS011;4934;50.852;8.098;2023-12-20T07:56:48;19.73;;;7.20;;
9789;SDS011;4934;50.852;8.098;2023-12-20T07:59:14;22.02;;;6.13;;
9789;SDS011;4934;50.852;8.098;2023-12-20T08:01:40;23.63;;;6.50;;
9789;SDS011;4934;50.852;8.098;2023-12-20T08:04:12;23.88;;;6.95;;
9789;SDS011;4934;50.852;8.098;2023-12-20T08:09:09;21.27;;;6.85;;
9789;SDS011;4934;50.852;8.098;2023-12-20T08:11:35;29.52;;;7.47;;
9789;SDS011;4934;50.852;8.098;2023-12-20T08:14:01;26.90;;;7.78;;
9789;SDS011;4934;50.852;8.098;2023-12-20T08:16:27;33.15;;;7.85;;
9789;SDS011;4934;50.852;8.098;2023-12-20T08:18:52;26.33;;;7.72;;
9789;SDS011;4934;50.852;8.098;2023-12-20T08:21:19;30.23;;;8.05;;
9789;SDS011;4934;50.852;8.098;2023-12-20T08:23:47;19.58;;;6.88;;
9789;SDS011;4934;50.852;8.098;2023-12-20T08:26:13;20.08;;;7.10;;
9789;SDS011;4934;50.852;8.098;2023-12-20T08:28:38;25.27;;;7.32;;
9789;SDS011;4934;50.852;8.098;2023-12-20T08:31:04;23.92;;;7.25;;
9789;SDS011;4934;50.852;8.098;2023-12-20T08:33:29;26.92;;;7.03;;
9789;SDS011;4934;50.852;8.098;2023-12-20T08:35:55;21.75;;;7.50;;
9789;SDS011;4934;50.852;8.098;2023-12-20T08:38:21;16.35;;;6.43;;
9789;SDS011;4934;50.852;8.098;2023-12-20T08:40:47;20.13;;;6.95;;
9789;SDS011;4934;50.852;8.098;2023-12-20T08:43:13;25.10;;;7.50;;
9789;SDS011;4934;50.852;8.098;2023-12-20T08:45:39;18.38;;;6.18;;
9789;SDS011;4934;50.852;8.098;2023-12-20T08:48:05;21.55;;;6.35;;
9789;SDS011;4934;50.852;8.098;2023-12-20T08:50:31;27.08;;;6.78;;
9789;SDS011;4934;50.852;8.098;2023-12-20T08:52:56;30.45;;;6.70;;
9789;SDS011;4934;50.852;8.098;2023-12-20T08:55:22;23.25;;;5.63;;
9789;SDS011;4934;50.852;8.098;2023-12-20T08:57:48;24.60;;;6.28;;
9789;SDS011;4934;50.852;8.098;2023-12-20T09:00:15;21.98;;;7.53;;
9789;SDS011;4934;50.852;8.098;2023-12-20T09:02:41;15.00;;;6.32;;
9789;SDS011;4934;50.852;8.098;2023-12-20T09:05:07;25.15;;;6.25;;
9789;SDS011;4934;50.852;8.098;2023-12-20T09:07:33;24.55;;;5.88;;
9789;SDS011;4934;50.852;8.098;2023-12-20T09:10:01;26.10;;;6.27;;
9789;SDS011;4934;50.852;8.098;2023-12-20T09:12:27;27.38;;;7.35;;
9789;SDS011;4934;50.852;8.098;2023-12-20T09:14:53;23.60;;;6.78;;
9789;SDS011;4934;50.852;8.098;2023-12-20T09:17:19;19.40;;;6.25;;
9789;SDS011;4934;50.852;8.098;2023-12-20T09:19:47;28.73;;;9.23;;
9789;SDS011;4934;50.852;8.098;2023-12-20T09:22:13;25.40;;;6.28;;
9789;SDS011;4934;50.852;8.098;2023-12-20T09:24:40;28.55;;;6.25;;
9789;SDS011;4934;50.852;8.098;2023-12-20T09:27:06;15.13;;;6.82;;
9789;SDS011;4934;50.852;8.098;2023-12-20T09:29:33;25.02;;;6.05;;
9789;SDS011;4934;50.852;8.098;2023-12-20T09:31:59;18.42;;;6.60;;
9789;SDS011;4934;50.852;8.098;2023-12-20T09:34:24;21.13;;;8.20;;
9789;SDS011;4934;50.852;8.098;2023-12-20T09:36:51;18.80;;;5.80;;
9789;SDS011;4934;50.852;8.098;2023-12-20T09:39:19;12.73;;;5.93;;
9789;SDS011;4934;50.852;8.098;2023-12-20T09:41:46;21.40;;;5.97;;
9789;SDS011;4934;50.852;8.098;2023-12-20T09:44:23;15.32;;;5.60;;
9789;SDS011;4934;50.852;8.098;2023-12-20T09:46:49;18.38;;;6.18;;
9789;SDS011;4934;50.852;8.098;2023-12-20T09:49:19;22.73;;;5.80;;
9789;SDS011;4934;50.852;8.098;2023-12-20T09:51:46;21.85;;;6.07;;
9789;SDS011;4934;50.852;8.098;2023-12-20T09:54:16;22.52;;;6.60;;
9789;SDS011;4934;50.852;8.098;2023-12-20T09:56:43;21.60;;;6.18;;
9789;SDS011;4934;50.852;8.098;2023-12-20T09:59:09;23.10;;;6.82;;
9789;SDS011;4934;50.852;8.098;2023-12-20T10:01:38;23.15;;;6.25;;
9789;SDS011;4934;50.852;8.098;2023-12-20T10:04:05;24.75;;;7.43;;
9789;SDS011;4934;50.852;8.098;2023-12-20T10:09:09;15.30;;;5.55;;
9789;SDS011;4934;50.852;8.098;2023-12-20T10:11:36;19.05;;;6.63;;
9789;SDS011;4934;50.852;8.098;2023-12-20T10:14:03;26.17;;;6.90;;
9789;SDS011;4934;50.852;8.098;2023-12-20T10:16:29;25.90;;;6.85;;
9789;SDS011;4934;50.852;8.098;2023-12-20T10:18:55;19.13;;;6.32;;
9789;SDS011;4934;50.852;8.098;2023-12-20T10:21:21;22.10;;;7.13;;
9789;SDS011;4934;50.852;8.098;2023-12-20T10:23:51;27.67;;;7.88;;
9789;SDS011;4934;50.852;8.098;2023-12-20T10:26:21;29.45;;;7.70;;
9789;SDS011;4934;50.852;8.098;2023-12-20T10:28:55;22.55;;;6.85;;
9789;SDS011;4934;50.852;8.098;2023-12-20T10:31:28;17.60;;;6.85;;
9789;SDS011;4934;50.852;8.098;2023-12-20T10:33:56;28.90;;;7.03;;
9789;SDS011;4934;50.852;8.098;2023-12-20T10:36:24;18.17;;;5.82;;
9789;SDS011;4934;50.852;8.098;2023-12-20T10:38:54;21.20;;;6.38;;
9789;SDS011;4934;50.852;8.098;2023-12-20T10:41:26;24.13;;;6.38;;
9789;SDS011;4934;50.852;8.098;2023-12-20T10:44:06;32.75;;;7.75;;
9789;SDS011;4934;50.852;8.098;2023-12-20T10:46:36;18.92;;;6.57;;
9789;SDS011;4934;50.852;8.098;2023-12-20T10:49:04;22.95;;;5.97;;
9789;SDS011;4934;50.852;8.098;2023-12-20T10:51:31;19.02;;;7.28;;
9789;SDS011;4934;50.852;8.098;2023-12-20T10:54:00;21.20;;;6.18;;
9789;SDS011;4934;50.852;8.098;2023-12-20T10:56:25;14.55;;;5.35;;
9789;SDS011;4934;50.852;8.098;2023-12-20T10:58:57;20.80;;;5.97;;
9789;SDS011;4934;50.852;8.098;2023-12-20T11:01:26;24.40;;;6.10;;
9789;SDS011;4934;50.852;8.098;2023-12-20T11:03:54;15.30;;;4.95;;
9789;SDS011;4934;50.852;8.098;2023-12-20T11:14:34;16.30;;;4.88;;
9789;SDS011;4934;50.852;8.098;2023-12-20T11:17:18;22.60;;;5.78;;
9789;SDS011;4934;50.852;8.098;2023-12-20T11:22:25;17.98;;;5.72;;
9789;SDS011;4934;50.852;8.098;2023-12-20T11:25:05;18.52;;;5.22;;
9789;SDS011;4934;50.852;8.098;2023-12-20T11:27:35;16.38;;;4.65;;
9789;SDS011;4934;50.852;8.098;2023-12-20T11:30:05;15.40;;;4.53;;
9789;SDS011;4934;50.852;8.098;2023-12-20T11:32:35;10.55;;;4.88;;
9789;SDS011;4934;50.852;8.098;2023-12-20T11:35:22;15.65;;;4.22;;
9789;SDS011;4934;50.852;8.098;2023-12-20T11:37:49;18.35;;;5.00;;
9789;SDS011;4934;50.852;8.098;2023-12-20T11:40:17;15.18;;;4.88;;
9789;SDS011;4934;50.852;8.098;2023-12-20T11:42:49;22.65;;;4.65;;
9789;SDS011;4934;50.852;8.098;2023-12-20T11:45:18;15.63;;;5.90;;
9789;SDS011;4934;50.852;8.098;2023-12-20T11:47:47;18.60;;;5.20;;
9789;SDS011;4934;50.852;8.098;2023-12-20T11:50:18;14.85;;;5.00;;
9789;SDS011;4934;50.852;8.098;2023-12-20T11:52:45;14.73;;;4.63;;
9789;SDS011;4934;50.852;8.098;2023-12-20T11:55:11;17.90;;;5.22;;
9789;SDS011;4934;50.852;8.098;2023-12-20T11:57:37;20.88;;;5.60;;
9789;SDS011;4934;50.852;8.098;2023-12-20T12:00:03;19.88;;;6.18;;
9789;SDS011;4934;50.852;8.098;2023-12-20T12:02:29;17.23;;;5.00;;
9789;SDS011;4934;50.852;8.098;2023-12-20T12:04:56;15.23;;;5.85;;
9789;SDS011;4934;50.852;8.098;2023-12-20T12:07:23;19.50;;;4.78;;
9789;SDS011;4934;50.852;8.098;2023-12-20T12:09:49;19.33;;;5.78;;
9789;SDS011;4934;50.852;8.098;2023-12-20T12:12:16;22.65;;;5.05;;
9789;SDS011;4934;50.852;8.098;2023-12-20T12:14:44;15.70;;;4.78;;
9789;SDS011;4934;50.852;8.098;2023-12-20T12:17:10;13.73;;;4.80;;
9789;SDS011;4934;50.852;8.098;2023-12-20T12:19:37;13.43;;;5.03;;
9789;SDS011;4934;50.852;8.098;2023-12-20T12:22:04;13.32;;;5.07;;
9789;SDS011;4934;50.852;8.098;2023-12-20T12:24:37;18.52;;;5.30;;
9789;SDS011;4934;50.852;8.098;2023-12-20T12:29:32;16.92;;;5.18;;
9789;SDS011;4934;50.852;8.098;2023-12-20T12:31:59;13.18;;;4.88;;
9789;SDS011;4934;50.852;8.098;2023-12-20T12:34:27;19.83;;;5.43;;
9789;SDS011;4934;50.852;8.098;2023-12-20T12:39:24;16.17;;;4.75;;
9789;SDS011;4934;50.852;8.098;2023-12-20T12:41:50;13.45;;;5.63;;
9789;SDS011;4934;50.852;8.098;2023-12-20T12:44:16;23.55;;;5.63;;
9789;SDS011;4934;50.852;8.098;2023-12-20T12:46:43;17.60;;;5.40;;
9789;SDS011;4934;50.852;8.098;2023-12-20T12:49:12;21.13;;;5.80;;
9789;SDS011;4934;50.852;8.098;2023-12-20T12:51:38;19.63;;;5.75;;
9789;SDS011;4934;50.852;8.098;2023-12-20T12:54:04;20.48;;;6.90;;
9789;SDS011;4934;50.852;8.098;2023-12-20T12:56:30;28.20;;;8.25;;
9789;SDS011;4934;50.852;8.098;2023-12-20T12:58:55;13.50;;;6.85;;
9789;SDS011;4934;50.852;8.098;2023-12-20T13:01:24;17.20;;;5.97;;
9789;SDS011;4934;50.852;8.098;2023-12-20T13:03:50;15.98;;;5.85;;
9789;SDS011;4934;50.852;8.098;2023-12-20T13:06:16;23.65;;;6.80;;
9789;SDS011;4934;50.852;8.098;2023-12-20T13:08:42;26.15;;;6.70;;
9789;SDS011;4934;50.852;8.098;2023-12-20T13:11:08;21.55;;;6.25;;
9789;SDS011;4934;50.852;8.098;2023-12-20T13:13:34;23.08;;;6.00;;
9789;SDS011;4934;50.852;8.098;2023-12-20T13:15:59;23.33;;;6.05;;
9789;SDS011;4934;50.852;8.098;2023-12-20T13:18:26;16.42;;;5.65;;
9789;SDS011;4934;50.852;8.098;2023-12-20T13:20:51;13.77;;;5.47;;
9789;SDS011;4934;50.852;8.098;2023-12-20T13:23:17;15.48;;;5.82;;
9789;SDS011;4934;50.852;8.098;2023-12-20T13:25:45;15.75;;;4.72;;
9789;SDS011;4934;50.852;8.098;2023-12-20T13:28:11;19.38;;;6.03;;
9789;SDS011;4934;50.852;8.098;2023-12-20T13:30:37;15.85;;;6.05;;
9789;SDS011;4934;50.852;8.098;2023-12-20T13:33:09;8.57;;;4.28;;
9789;SDS011;4934;50.852;8.098;2023-12-20T13:35:35;11.93;;;4.50;;
9789;SDS011;4934;50.852;8.098;2023-12-20T13:38:01;19.75;;;5.03;;
9789;SDS011;4934;50.852;8.098;2023-12-20T13:40:27;12.02;;;4.43;;
9789;SDS011;4934;50.852;8.098;2023-12-20T13:42:53;17.55;;;5.60;;
9789;SDS011;4934;50.852;8.098;2023-12-20T13:45:21;10.00;;;4.50;;
9789;SDS011;4934;50.852;8.098;2023-12-20T13:47:47;9.52;;;4.80;;
9789;SDS011;4934;50.852;8.098;2023-12-20T13:50:12;15.45;;;3.70;;
9789;SDS011;4934;50.852;8.098;2023-12-20T13:52:38;14.38;;;4.43;;
9789;SDS011;4934;50.852;8.098;2023-12-20T13:55:05;12.60;;;3.30;;
9789;SDS011;4934;50.852;8.098;2023-12-20T13:57:33;5.53;;;3.55;;
9789;SDS011;4934;50.852;8.098;2023-12-20T13:59:58;8.38;;;3.50;;
9789;SDS011;4934;50.852;8.098;2023-12-20T14:02:24;7.95;;;4.63;;
9789;SDS011;4934;50.852;8.098;2023-12-20T14:04:52;9.38;;;3.33;;
9789;SDS011;4934;50.852;8.098;2023-12-20T14:07:17;10.65;;;3.85;;
9789;SDS011;4934;50.852;8.098;2023-12-20T14:09:44;10.73;;;3.55;;
9789;SDS011;4934;50.852;8.098;2023-12-20T14:12:11;6.47;;;3.72;;
9789;SDS011;4934;50.852;8.098;2023-12-20T14:14:38;10.82;;;3.47;;
9789;SDS011;4934;50.852;8.098;2023-12-20T14:17:04;7.85;;;3.50;;
9789;SDS011;4934;50.852;8.098;2023-12-20T14:19:31;13.73;;;3.97;;
9789;SDS011;4934;50.852;8.098;2023-12-20T14:21:57;8.68;;;4.13;;
9789;SDS011;4934;50.852;8.098;2023-12-20T14:26:52;12.60;;;3.83;;
9789;SDS011;4934;50.852;8.098;2023-12-20T14:29:18;7.70;;;4.22;;
9789;SDS011;4934;50.852;8.098;2023-12-20T14:31:43;15.85;;;4.68;;
9789;SDS011;4934;50.852;8.098;2023-12-20T14:34:09;13.48;;;5.90;;
9789;SDS011;4934;50.852;8.098;2023-12-20T14:36:35;30.48;;;8.13;;
9789;SDS011;4934;50.852;8.098;2023-12-20T14:41:32;13.45;;;5.82;;
9789;SDS011;4934;50.852;8.098;2023-12-20T14:43:57;11.48;;;4.60;;
9789;SDS011;4934;50.852;8.098;2023-12-20T14:46:24;21.42;;;5.60;;
9789;SDS011;4934;50.852;8.098;2023-12-20T14:48:50;17.70;;;5.55;;
9789;SDS011;4934;50.852;8.098;2023-12-20T14:51:15;17.63;;;6.03;;
9789;SDS011;4934;50.852;8.098;2023-12-20T14:53:41;9.18;;;5.85;;
9789;SDS011;4934;50.852;8.098;2023-12-20T14:56:07;18.90;;;9.63;;
9789;SDS011;4934;50.852;8.098;2023-12-20T14:58:43;12.60;;;6.35;;
9789;SDS011;4934;50.852;8.098;2023-12-20T15:01:09;13.68;;;5.32;;
9789;SDS011;4934;50.852;8.098;2023-12-20T15:03:34;18.63;;;7.00;;
9789;SDS011;4934;50.852;8.098;2023-12-20T15:06:00;13.77;;;6.97;;
9789;SDS011;4934;50.852;8.098;2023-12-20T15:08:32;21.70;;;9.63;;
9789;SDS011;4934;50.852;8.098;2023-12-20T15:10:57;21.55;;;7.50;;
9789;SDS011;4934;50.852;8.098;2023-12-20T15:13:24;21.02;;;8.85;;
9789;SDS011;4934;50.852;8.098;2023-12-20T15:15:49;19.92;;;9.13;;
9789;SDS011;4934;50.852;8.098;2023-12-20T15:18:15;29.20;;;10.90;;
9789;SDS011;4934;50.852;8.098;2023-12-20T15:20:41;15.40;;;6.90;;
9789;SDS011;4934;50.852;8.098;2023-12-20T15:23:08;22.13;;;9.02;;
9789;SDS011;4934;50.852;8.098;2023-12-20T15:25:36;18.17;;;6.60;;
9789;SDS011;4934;50.852;8.098;2023-12-20T15:28:02;18.58;;;7.20;;
9789;SDS011;4934;50.852;8.098;2023-12-20T15:30:28;15.60;;;4.85;;
9789;SDS011;4934;50.852;8.098;2023-12-20T15:32:54;10.73;;;3.90;;
9789;SDS011;4934;50.852;8.098;2023-12-20T15:35:21;11.05;;;4.00;;